Time;durP1;ratioP1;P1;durP2;ratioP2;P2;SDS_P1;SDS_P2;PMS_P1;PMS_P2;Temp;Humidity;BMP_temperature;BMP_pressure;BME280_temperature;BME280_humidity;BME280_pressure;Samples;Min_cycle;Max_cycle;Signal;HPM_P1;HPM_P2
2021/08/16 00:00:32;;;;;;;13.20;2.50;;;16.90;76.80;;;;;;5089019;28;20078;-87
2021/08/16 00:02:59;;;;;;;9.02;2.15;;;16.90;76.90;;;;;;5090210;28;20039;-89
2021/08/16 00:05:26;;;;;;;18.33;2.72;;;16.90;76.90;;;;;;5091390;28;20489;-86
2021/08/16 00:07:53;;;;;;;10.43;2.85;;;16.90;76.90;;;;;;5091794;28;20109;-88
2021/08/16 00:10:22;;;;;;;18.23;2.92;;;16.90;76.90;;;;;;5090213;28;20065;-87
2021/08/16 00:12:48;;;;;;;12.27;2.70;;;16.90;76.90;;;;;;5090226;28;20093;-87
2021/08/16 00:15:15;;;;;;;10.68;2.70;;;17.00;76.90;;;;;;5090227;28;20105;-88
2021/08/16 00:17:44;;;;;;;10.95;2.67;;;17.00;76.90;;;;;;5089765;28;20101;-88
2021/08/16 00:20:11;;;;;;;8.02;2.20;;;17.00;77.00;;;;;;5092194;28;20501;-86
2021/08/16 00:22:38;;;;;;;10.75;2.35;;;17.10;77.00;;;;;;5090154;28;20165;-89
2021/08/16 00:25:06;;;;;;;12.20;2.65;;;17.10;77.10;;;;;;5090188;28;20089;-87
2021/08/16 00:27:34;;;;;;;9.80;2.00;;;17.10;77.30;;;;;;5090130;28;20044;-87
2021/08/16 00:30:03;;;;;;;12.73;2.55;;;17.10;77.30;;;;;;5089895;28;20047;-87
2021/08/16 00:32:30;;;;;;;10.15;2.25;;;17.10;77.30;;;;;;5090574;28;20044;-87
2021/08/16 00:34:57;;;;;;;13.15;2.83;;;17.10;77.40;;;;;;5090693;28;20055;-86
2021/08/16 00:37:24;;;;;;;15.73;2.75;;;17.10;77.40;;;;;;5089982;28;20052;-87
2021/08/16 00:39:51;;;;;;;15.75;3.20;;;17.10;77.40;;;;;;5088522;28;20048;-87
2021/08/16 00:42:18;;;;;;;16.20;3.38;;;17.10;77.40;;;;;;5090163;28;20098;-87
2021/08/16 00:44:45;;;;;;;11.98;2.70;;;17.10;77.30;;;;;;5089676;28;20048;-87
2021/08/16 00:47:14;;;;;;;13.40;3.17;;;17.10;77.30;;;;;;5092086;28;20491;-88
2021/08/16 00:49:41;;;;;;;15.18;3.00;;;17.10;77.30;;;;;;5089974;28;20047;-87
2021/08/16 00:52:08;;;;;;;17.30;2.78;;;17.10;77.30;;;;;;5089862;28;20101;-87
2021/08/16 00:54:36;;;;;;;15.43;2.90;;;17.20;77.30;;;;;;5089677;28;20044;-87
2021/08/16 00:57:04;;;;;;;15.75;2.85;;;17.10;77.30;;;;;;5089918;28;20044;-87
2021/08/16 00:59:32;;;;;;;11.13;2.67;;;17.10;77.30;;;;;;5089856;28;20571;-85
2021/08/16 01:01:59;;;;;;;12.52;3.08;;;17.10;77.30;;;;;;5089909;28;20513;-86
2021/08/16 01:04:28;;;;;;;8.95;2.42;;;17.10;77.40;;;;;;5088401;28;20072;-87
2021/08/16 01:06:55;;;;;;;9.93;2.63;;;17.20;77.40;;;;;;5089785;28;20071;-86
2021/08/16 01:09:22;;;;;;;13.50;3.33;;;17.10;77.40;;;;;;5089879;28;20044;-86
2021/08/16 01:11:50;;;;;;;16.08;3.28;;;17.10;77.40;;;;;;5089942;28;20041;-88
2021/08/16 01:14:17;;;;;;;11.70;3.33;;;17.10;77.40;;;;;;5087418;28;20048;-88
2021/08/16 01:16:45;;;;;;;13.82;3.53;;;17.10;77.40;;;;;;5087179;28;20102;-88
2021/08/16 01:19:12;;;;;;;12.05;3.10;;;17.10;77.40;;;;;;5088191;28;20044;-88
2021/08/16 01:21:39;;;;;;;11.95;3.13;;;17.10;77.40;;;;;;5089552;28;20094;-89
2021/08/16 01:24:06;;;;;;;14.35;3.08;;;17.00;77.40;;;;;;5089655;28;20403;-87
2021/08/16 01:26:34;;;;;;;13.20;3.35;;;17.10;77.40;;;;;;5089647;28;20106;-85
2021/08/16 01:29:21;;;;;;;15.95;3.30;;;17.00;77.40;;;;;;5091344;28;20069;-88
2021/08/16 01:31:58;;;;;;;10.85;2.53;;;17.00;77.40;;;;;;5094391;28;20056;-87
2021/08/16 01:34:25;;;;;;;11.65;3.00;;;17.00;77.40;;;;;;5092872;28;20044;-86
2021/08/16 01:36:53;;;;;;;15.32;3.55;;;17.00;77.40;;;;;;5093058;28;20044;-88
2021/08/16 01:39:20;;;;;;;9.82;2.63;;;17.00;77.40;;;;;;5093155;28;20040;-88
2021/08/16 01:41:48;;;;;;;10.15;3.13;;;17.00;77.50;;;;;;5076058;28;20047;-87
2021/08/16 01:44:19;;;;;;;11.00;2.67;;;17.00;77.50;;;;;;5090402;28;20394;-86
2021/08/16 01:46:46;;;;;;;10.10;3.22;;;17.00;77.50;;;;;;5091136;28;20097;-86
2021/08/16 01:49:13;;;;;;;13.10;3.08;;;17.00;77.50;;;;;;5092858;28;20444;-87
2021/08/16 01:51:41;;;;;;;14.77;3.35;;;17.00;77.50;;;;;;5092774;28;20509;-87
2021/08/16 01:54:11;;;;;;;14.13;3.08;;;17.00;77.50;;;;;;5092711;28;20517;-87
2021/08/16 01:56:39;;;;;;;16.83;3.80;;;17.00;77.50;;;;;;5092897;28;20087;-88
2021/08/16 01:59:06;;;;;;;11.57;3.20;;;16.90;77.60;;;;;;5093354;28;20048;-87
2021/08/16 02:01:33;;;;;;;14.00;3.13;;;16.90;77.60;;;;;;5092622;28;20097;-88
2021/08/16 02:04:00;;;;;;;18.73;3.70;;;16.90;77.70;;;;;;5092361;28;20040;-87
2021/08/16 02:06:27;;;;;;;14.73;3.15;;;16.90;77.70;;;;;;5092616;28;20052;-88
2021/08/16 02:08:56;;;;;;;11.15;2.97;;;16.90;77.70;;;;;;5092715;28;20113;-88
2021/08/16 02:11:23;;;;;;;13.02;2.85;;;16.90;77.70;;;;;;5093667;28;20052;-89
2021/08/16 02:13:50;;;;;;;12.20;3.35;;;16.90;77.80;;;;;;5090833;28;20055;-87
2021/08/16 02:16:17;;;;;;;10.25;2.83;;;16.90;77.80;;;;;;5091992;28;20044;-87
2021/08/16 02:18:44;;;;;;;12.77;2.75;;;16.90;77.80;;;;;;5092176;28;20044;-87
2021/08/16 02:21:11;;;;;;;14.77;3.50;;;16.90;77.90;;;;;;5092314;28;20105;-86
2021/08/16 02:23:38;;;;;;;17.92;3.47;;;16.90;77.90;;;;;;5092200;28;20425;-87
2021/08/16 02:26:05;;;;;;;13.93;2.95;;;16.90;78.00;;;;;;5093927;28;20472;-87
2021/08/16 02:28:33;;;;;;;17.08;3.58;;;16.90;78.00;;;;;;5091974;28;20040;-87
2021/08/16 02:31:00;;;;;;;10.73;2.95;;;16.90;78.00;;;;;;5091993;28;20113;-87
2021/08/16 02:33:27;;;;;;;12.23;2.53;;;17.00;78.10;;;;;;5091860;28;20103;-88
2021/08/16 02:35:54;;;;;;;10.40;2.38;;;17.00;78.10;;;;;;5090616;28;20045;-89
2021/08/16 02:38:21;;;;;;;11.48;2.60;;;17.00;78.10;;;;;;5093351;28;20101;-84
2021/08/16 02:40:48;;;;;;;20.25;3.38;;;17.00;78.20;;;;;;5092201;28;20056;-87
2021/08/16 02:43:15;;;;;;;9.93;2.63;;;16.90;78.20;;;;;;5090429;28;20040;-86
2021/08/16 02:45:41;;;;;;;13.70;2.67;;;17.00;78.30;;;;;;5091724;28;20056;-87
2021/08/16 02:48:08;;;;;;;9.55;2.53;;;17.00;78.30;;;;;;5091752;28;20085;-87
2021/08/16 02:50:35;;;;;;;10.82;2.47;;;17.00;78.30;;;;;;5091766;28;20048;-85
2021/08/16 02:53:02;;;;;;;16.42;2.75;;;17.00;78.40;;;;;;5093698;28;20070;-88
2021/08/16 02:55:29;;;;;;;13.40;2.70;;;17.00;78.50;;;;;;5091052;28;20098;-88
2021/08/16 02:57:56;;;;;;;9.05;2.58;;;17.00;78.60;;;;;;5091410;28;20040;-88
2021/08/16 03:00:23;;;;;;;13.25;2.63;;;17.00;78.60;;;;;;5090175;28;20048;-89
2021/08/16 03:02:49;;;;;;;12.25;2.83;;;17.00;78.70;;;;;;5091533;28;20098;-88
2021/08/16 03:05:17;;;;;;;14.35;3.20;;;17.00;78.80;;;;;;5093509;28;20048;-89
2021/08/16 03:07:43;;;;;;;11.02;2.65;;;17.00;78.90;;;;;;5090003;28;20040;-88
2021/08/16 03:10:11;;;;;;;11.88;3.10;;;17.00;78.90;;;;;;5090830;28;20052;-90
2021/08/16 03:12:38;;;;;;;11.68;2.60;;;16.90;78.90;;;;;;5091228;28;20105;-88
2021/08/16 03:15:06;;;;;;;12.32;3.03;;;17.00;79.10;;;;;;5089836;28;20166;-88
2021/08/16 03:17:33;;;;;;;14.80;2.75;;;17.00;79.10;;;;;;5091017;28;20138;-90
2021/08/16 03:20:00;;;;;;;12.80;2.35;;;17.00;79.10;;;;;;5093188;28;20098;-88
2021/08/16 03:22:27;;;;;;;13.25;2.70;;;17.00;79.20;;;;;;5091036;28;20048;-89
2021/08/16 03:24:54;;;;;;;10.70;2.42;;;17.00;79.20;;;;;;5090608;28;20387;-88
2021/08/16 03:27:21;;;;;;;11.05;2.50;;;17.00;79.20;;;;;;5091026;28;20074;-88
2021/08/16 03:29:48;;;;;;;7.55;2.28;;;17.10;79.20;;;;;;5075141;28;20040;-89
2021/08/16 03:32:15;;;;;;;9.77;2.78;;;17.00;79.20;;;;;;5088702;28;20554;-86
2021/08/16 03:34:42;;;;;;;12.93;3.47;;;17.00;79.20;;;;;;5090897;28;20531;-88
2021/08/16 03:37:09;;;;;;;7.78;2.13;;;17.10;79.20;;;;;;5090804;28;20550;-88
2021/08/16 03:39:36;;;;;;;9.95;2.67;;;17.00;79.20;;;;;;5090419;28;20036;-87
2021/08/16 03:42:03;;;;;;;8.30;2.25;;;17.00;79.20;;;;;;5090886;28;20052;-88
2021/08/16 03:44:30;;;;;;;9.63;2.22;;;17.00;79.20;;;;;;5091277;28;20040;-89
2021/08/16 03:46:57;;;;;;;11.05;2.88;;;17.00;79.30;;;;;;5092433;28;20052;-87
2021/08/16 03:49:23;;;;;;;11.82;2.80;;;17.00;79.30;;;;;;5090556;28;20093;-87
2021/08/16 03:51:50;;;;;;;15.00;2.97;;;17.00;79.30;;;;;;5090536;28;20535;-88
2021/08/16 03:54:17;;;;;;;15.10;2.97;;;16.90;79.40;;;;;;5087135;28;20040;-88
2021/08/16 03:56:44;;;;;;;10.27;2.25;;;17.00;79.40;;;;;;5090557;28;20044;-87
2021/08/16 03:59:11;;;;;;;12.00;2.65;;;17.00;79.50;;;;;;5092657;28;20093;-87
2021/08/16 04:01:38;;;;;;;8.50;2.38;;;17.00;79.50;;;;;;5090369;28;20044;-85
2021/08/16 04:04:05;;;;;;;10.52;2.17;;;17.00;79.60;;;;;;5090228;28;20044;-86
2021/08/16 04:06:31;;;;;;;10.65;2.35;;;17.00;79.80;;;;;;5090383;28;20048;-87
2021/08/16 04:08:58;;;;;;;12.43;2.95;;;17.00;79.90;;;;;;5090117;28;20101;-88
2021/08/16 04:11:25;;;;;;;12.45;3.20;;;17.00;80.00;;;;;;5091543;28;20097;-86
2021/08/16 04:13:52;;;;;;;9.60;2.40;;;17.00;80.00;;;;;;5091314;28;20052;-88
2021/08/16 04:16:19;;;;;;;8.93;2.67;;;16.90;80.10;;;;;;5089913;28;20056;-88
2021/08/16 04:18:46;;;;;;;11.55;2.85;;;16.90;80.20;;;;;;5088892;28;20460;-87
2021/08/16 04:21:13;;;;;;;11.45;2.92;;;16.90;80.30;;;;;;5090220;28;20590;-87
2021/08/16 04:23:40;;;;;;;7.38;2.42;;;16.90;80.40;;;;;;5089867;28;20041;-88
2021/08/16 04:26:07;;;;;;;9.57;2.78;;;16.90;80.40;;;;;;5092352;28;20626;-88
2021/08/16 04:28:34;;;;;;;10.10;2.85;;;16.90;80.40;;;;;;5090084;28;20040;-88
2021/08/16 04:31:01;;;;;;;8.98;2.33;;;16.90;80.40;;;;;;5090068;28;20394;-88
2021/08/16 04:33:27;;;;;;;10.57;2.50;;;16.90;80.40;;;;;;5088565;28;20048;-88
2021/08/16 04:35:55;;;;;;;9.98;2.30;;;17.00;80.50;;;;;;5090126;28;20121;-88
2021/08/16 04:38:23;;;;;;;11.07;2.60;;;16.90;80.50;;;;;;5091150;28;20048;-88
2021/08/16 04:40:54;;;;;;;10.20;2.85;;;16.90;80.40;;;;;;5089533;28;20513;-89
2021/08/16 04:43:21;;;;;;;8.55;2.40;;;17.00;80.50;;;;;;5089768;28;20524;-87
2021/08/16 04:45:48;;;;;;;11.82;2.35;;;16.90;80.40;;;;;;5089970;28;20044;-87
2021/08/16 04:48:15;;;;;;;9.80;1.98;;;16.90;80.40;;;;;;5090070;28;20522;-87
2021/08/16 04:50:42;;;;;;;14.65;3.15;;;16.90;80.40;;;;;;5089924;28;20460;-88
2021/08/16 04:53:09;;;;;;;7.03;2.20;;;16.90;80.50;;;;;;5091707;28;20052;-88
2021/08/16 04:55:36;;;;;;;10.15;2.92;;;16.90;80.50;;;;;;5089731;28;20044;-89
2021/08/16 04:58:03;;;;;;;8.82;2.75;;;16.90;80.50;;;;;;5088576;28;20085;-88
2021/08/16 05:00:30;;;;;;;9.68;3.00;;;16.90;80.60;;;;;;5088679;28;20047;-88
2021/08/16 05:02:58;;;;;;;6.30;2.13;;;16.90;80.60;;;;;;5089918;28;20040;-88
2021/08/16 05:05:29;;;;;;;14.82;2.60;;;16.90;80.60;;;;;;5090570;28;20449;-87
2021/08/16 05:07:57;;;;;;;9.15;2.60;;;16.90;80.70;;;;;;5095356;28;20063;-88
2021/08/16 05:10:26;;;;;;;8.25;2.38;;;16.90;80.70;;;;;;5093567;28;20065;-87
2021/08/16 05:12:55;;;;;;;10.30;2.45;;;16.90;80.70;;;;;;5092105;28;20090;-88
2021/08/16 05:15:22;;;;;;;9.43;2.10;;;16.90;80.80;;;;;;5093298;28;20464;-86
2021/08/16 05:17:50;;;;;;;7.28;2.03;;;16.90;80.80;;;;;;5093528;28;20048;-89
2021/08/16 05:20:18;;;;;;;7.82;2.67;;;16.90;80.80;;;;;;5091383;28;20579;-89
2021/08/16 05:22:47;;;;;;;10.90;2.42;;;16.90;80.80;;;;;;5093900;28;20106;-89
2021/08/16 05:25:16;;;;;;;9.13;2.60;;;16.90;80.90;;;;;;5093297;28;20093;-88
2021/08/16 05:27:44;;;;;;;9.00;2.35;;;16.90;80.90;;;;;;5093374;28;20580;-88
2021/08/16 05:30:11;;;;;;;7.25;2.88;;;16.90;81.00;;;;;;5093309;28;20070;-88
2021/08/16 05:32:39;;;;;;;7.53;2.50;;;16.90;81.00;;;;;;5093166;28;20052;-88
2021/08/16 05:35:07;;;;;;;12.23;3.50;;;16.90;81.00;;;;;;5094795;28;20101;-88
2021/08/16 05:37:35;;;;;;;13.05;2.90;;;16.90;81.10;;;;;;5091883;28;20052;-89
2021/08/16 05:40:02;;;;;;;8.23;2.78;;;16.90;81.10;;;;;;5093026;28;20043;-88
2021/08/16 05:42:29;;;;;;;6.70;2.85;;;16.90;81.20;;;;;;5093151;28;20048;-89
2021/08/16 05:44:56;;;;;;;9.07;3.55;;;16.90;81.20;;;;;;5092967;28;20047;-88
2021/08/16 05:47:23;;;;;;;8.73;3.03;;;17.00;81.30;;;;;;5094328;28;20052;-85
2021/08/16 05:49:50;;;;;;;7.72;3.75;;;16.90;81.40;;;;;;5093392;28;20048;-88
2021/08/16 05:52:17;;;;;;;8.95;3.25;;;17.00;81.40;;;;;;5091384;28;20059;-88
2021/08/16 05:54:45;;;;;;;9.10;3.40;;;17.00;81.50;;;;;;5092651;28;20085;-88
2021/08/16 05:57:12;;;;;;;7.80;3.60;;;16.90;81.50;;;;;;5091512;28;20052;-88
2021/08/16 05:59:38;;;;;;;10.25;3.30;;;17.00;81.60;;;;;;5092714;28;20062;-88
2021/08/16 06:02:05;;;;;;;10.88;3.72;;;17.00;81.60;;;;;;5093677;28;20044;-88
2021/08/16 06:04:33;;;;;;;9.52;3.08;;;17.00;81.70;;;;;;5092685;28;20048;-91
2021/08/16 06:07:00;;;;;;;7.60;3.08;;;17.00;81.70;;;;;;5093313;28;20090;-92
2021/08/16 06:09:26;;;;;;;10.55;3.90;;;17.00;81.70;;;;;;5093044;28;20048;-89
2021/08/16 06:11:53;;;;;;;6.28;3.00;;;17.00;81.70;;;;;;5092756;28;20475;-90
2021/08/16 06:14:20;;;;;;;7.32;2.65;;;17.00;81.70;;;;;;5094323;28;20051;-90
2021/08/16 06:16:47;;;;;;;5.75;2.90;;;17.00;81.80;;;;;;5089810;28;20502;-87
2021/08/16 06:19:14;;;;;;;6.10;2.40;;;17.00;81.80;;;;;;5092052;28;20040;-89
2021/08/16 06:21:44;;;;;;;6.07;2.47;;;17.00;81.90;;;;;;5092355;28;20048;-92
2021/08/16 06:24:12;;;;;;;7.95;2.90;;;17.00;82.00;;;;;;5091905;28;20078;-88
2021/08/16 06:26:40;;;;;;;6.65;2.85;;;17.00;82.10;;;;;;5085720;28;20064;-93
2021/08/16 06:29:07;;;;;;;5.82;2.75;;;17.10;82.10;;;;;;5078027;28;20487;-87
2021/08/16 06:31:35;;;;;;;5.43;2.50;;;17.10;82.10;;;;;;5078195;28;20468;-90
2021/08/16 06:34:03;;;;;;;7.65;2.90;;;17.10;82.20;;;;;;5078023;28;20105;-93
2021/08/16 06:36:37;;;;;;;6.53;2.67;;;17.10;82.20;;;;;;5079849;28;20044;-92
2021/08/16 06:39:05;;;;;;;7.37;2.73;;;17.10;82.30;;;;;;5090173;28;20532;-87
2021/08/16 06:41:31;;;;;;;4.68;2.50;;;17.10;82.30;;;;;;5075564;28;20720;-86
2021/08/16 06:43:58;;;;;;;6.20;2.90;;;17.20;82.30;;;;;;5077644;28;20101;-88
2021/08/16 06:46:25;;;;;;;8.38;2.92;;;17.20;82.40;;;;;;5084190;28;20151;-86
2021/08/16 06:48:52;;;;;;;3.88;2.38;;;17.20;82.50;;;;;;5084515;28;20525;-86
2021/08/16 06:51:19;;;;;;;5.22;2.20;;;17.20;82.50;;;;;;5077553;28;20101;-85
2021/08/16 06:53:46;;;;;;;3.80;2.38;;;17.20;82.50;;;;;;5073401;28;20055;-88
2021/08/16 06:56:13;;;;;;;5.50;2.22;;;17.20;82.50;;;;;;5077529;28;20106;-88
2021/08/16 06:58:40;;;;;;;5.28;2.45;;;17.30;82.60;;;;;;5077442;28;20522;-91
2021/08/16 07:01:06;;;;;;;13.35;2.50;;;17.30;82.60;;;;;;5077513;28;20391;-89
2021/08/16 07:03:34;;;;;;;5.85;2.97;;;17.30;82.60;;;;;;5078500;28;20151;-88
2021/08/16 07:06:01;;;;;;;7.93;2.72;;;17.30;82.60;;;;;;5088601;28;20079;-89
2021/08/16 07:08:28;;;;;;;7.45;2.72;;;17.40;82.60;;;;;;5089243;28;20078;-89
2021/08/16 07:10:55;;;;;;;8.13;2.78;;;17.40;82.60;;;;;;5077467;28;20049;-87
2021/08/16 07:13:21;;;;;;;5.18;2.85;;;17.40;82.60;;;;;;5082723;28;20075;-88
2021/08/16 07:15:49;;;;;;;6.68;2.67;;;17.40;82.60;;;;;;5084540;28;20040;-89
2021/08/16 07:18:16;;;;;;;9.45;3.90;;;17.40;82.50;;;;;;5076296;28;20076;-88
2021/08/16 07:20:44;;;;;;;5.82;2.40;;;17.40;82.60;;;;;;5074070;28;20164;-87
2021/08/16 07:23:11;;;;;;;7.97;3.60;;;17.40;82.50;;;;;;5087962;28;20057;-87
2021/08/16 07:25:38;;;;;;;6.15;3.47;;;17.50;82.50;;;;;;5077579;28;20094;-88
2021/08/16 07:28:06;;;;;;;8.50;4.00;;;17.50;82.60;;;;;;5075907;28;20040;-88
2021/08/16 07:30:33;;;;;;;8.73;4.10;;;17.60;82.60;;;;;;5074932;28;20048;-88
2021/08/16 07:33:01;;;;;;;7.57;3.58;;;17.60;82.70;;;;;;5088651;28;20093;-88
2021/08/16 07:35:27;;;;;;;9.55;4.80;;;17.60;82.80;;;;;;5088170;28;20097;-87
2021/08/16 07:37:56;;;;;;;7.65;4.30;;;17.70;82.80;;;;;;5076847;28;20052;-88
2021/08/16 07:40:23;;;;;;;10.20;4.07;;;17.70;82.70;;;;;;5076984;28;20498;-88
2021/08/16 07:42:50;;;;;;;8.25;4.57;;;17.80;82.70;;;;;;5077735;28;20476;-90
2021/08/16 07:45:17;;;;;;;9.52;4.28;;;17.80;82.70;;;;;;5087460;28;20533;-88
2021/08/16 07:47:44;;;;;;;10.60;3.28;;;17.80;82.70;;;;;;5074192;28;20510;-88
2021/08/16 07:50:11;;;;;;;7.85;2.85;;;17.80;82.70;;;;;;5088045;28;20051;-91
2021/08/16 07:52:40;;;;;;;7.15;2.67;;;17.80;82.60;;;;;;5090365;28;20048;-88
2021/08/16 07:55:08;;;;;;;6.97;2.40;;;17.80;82.50;;;;;;5080942;28;20452;-87
2021/08/16 07:57:35;;;;;;;5.18;2.38;;;17.80;82.30;;;;;;5083612;28;20051;-88
2021/08/16 08:00:08;;;;;;;4.78;2.33;;;17.80;82.10;;;;;;5120001;27;20468;-87
2021/08/16 08:02:49;;;;;;;5.80;2.35;;;17.90;81.90;;;;;;5088240;28;20044;-87
2021/08/16 08:05:19;;;;;;;7.10;2.40;;;17.90;81.70;;;;;;5086909;28;20139;-88
2021/08/16 08:07:46;;;;;;;6.75;2.42;;;17.90;81.50;;;;;;5086792;28;20102;-87
2021/08/16 08:10:16;;;;;;;6.53;2.75;;;17.90;81.30;;;;;;5080252;28;20052;-87
2021/08/16 08:12:44;;;;;;;6.07;2.10;;;17.90;81.10;;;;;;5085975;28;20051;-86
2021/08/16 08:15:13;;;;;;;5.72;2.15;;;17.90;80.90;;;;;;5087152;28;20052;-87
2021/08/16 08:17:40;;;;;;;7.13;2.20;;;17.90;80.50;;;;;;5088295;28;20086;-88
2021/08/16 08:20:09;;;;;;;7.35;2.05;;;17.90;80.30;;;;;;5120083;28;20093;-87
2021/08/16 08:22:36;;;;;;;6.05;2.15;;;17.90;80.10;;;;;;5077358;28;20056;-88
2021/08/16 08:25:03;;;;;;;8.38;1.90;;;17.90;79.80;;;;;;5075489;28;20502;-89
2021/08/16 08:27:30;;;;;;;4.53;1.80;;;17.90;79.70;;;;;;5076212;28;20080;-87
2021/08/16 08:29:57;;;;;;;12.45;2.35;;;17.90;79.60;;;;;;5072657;28;20041;-89
2021/08/16 08:32:24;;;;;;;8.23;2.35;;;17.90;79.50;;;;;;5074554;28;20048;-90
2021/08/16 08:34:51;;;;;;;6.65;2.55;;;17.90;79.30;;;;;;5071311;28;20117;-89
2021/08/16 08:37:18;;;;;;;7.50;2.45;;;17.90;78.90;;;;;;5075998;28;20078;-88
2021/08/16 08:39:46;;;;;;;6.13;2.50;;;17.90;78.40;;;;;;5077731;28;20036;-88
2021/08/16 08:42:14;;;;;;;7.53;2.85;;;17.90;77.90;;;;;;5079085;28;20044;-88
2021/08/16 08:44:42;;;;;;;8.68;2.92;;;17.90;78.00;;;;;;5092057;28;20040;-87
2021/08/16 08:47:11;;;;;;;7.43;2.75;;;17.90;78.30;;;;;;5080065;28;20094;-88
2021/08/16 08:49:38;;;;;;;6.32;2.72;;;18.00;78.50;;;;;;5087921;28;20044;-85
2021/08/16 08:52:05;;;;;;;8.65;3.40;;;18.00;78.20;;;;;;5084923;28;20090;-86
2021/08/16 08:54:34;;;;;;;7.57;2.83;;;18.00;77.70;;;;;;5079800;28;20044;-85
2021/08/16 08:57:21;;;;;;;7.65;3.10;;;18.10;77.40;;;;;;5085217;28;20082;-89
2021/08/16 08:59:48;;;;;;;8.73;3.53;;;18.10;76.90;;;;;;5076454;28;20048;-87
2021/08/16 09:02:17;;;;;;;7.50;3.58;;;18.10;76.80;;;;;;5091046;28;20055;-87
2021/08/16 09:04:55;;;;;;;7.57;3.30;;;18.20;76.90;;;;;;5080069;28;20429;-85
2021/08/16 09:07:35;;;;;;;10.60;4.05;;;18.30;76.80;;;;;;5079406;28;20108;-87
2021/08/16 09:10:05;;;;;;;7.78;3.72;;;18.30;76.40;;;;;;5082471;28;20101;-87
2021/08/16 09:12:37;;;;;;;8.38;4.53;;;18.40;76.30;;;;;;5087827;28;20044;-86
2021/08/16 09:15:17;;;;;;;8.98;4.80;;;18.50;76.10;;;;;;5090912;28;20048;-88
2021/08/16 09:17:45;;;;;;;11.27;5.40;;;18.60;75.50;;;;;;5091317;28;20056;-87
2021/08/16 09:20:21;;;;;;;10.02;5.63;;;18.70;75.20;;;;;;5079006;28;20055;-89
2021/08/16 09:23:04;;;;;;;11.27;5.20;;;18.80;74.30;;;;;;5074227;28;20052;-87
2021/08/16 09:25:37;;;;;;;11.73;6.53;;;18.90;73.90;;;;;;5079235;28;20571;-89
2021/08/16 09:28:06;;;;;;;11.20;6.15;;;19.00;73.70;;;;;;5078523;28;20450;-89
2021/08/16 09:30:35;;;;;;;15.38;7.22;;;19.20;73.80;;;;;;5079597;28;20182;-88
2021/08/16 09:33:12;;;;;;;15.23;7.53;;;19.30;73.70;;;;;;5076572;28;20395;-91
2021/08/16 09:35:57;;;;;;;13.45;8.18;;;19.40;73.50;;;;;;5075388;28;25166;-91
2021/08/16 09:38:36;;;;;;;15.15;9.40;;;19.60;72.90;;;;;;5090299;28;20501;-88
2021/08/16 09:41:24;;;;;;;17.80;9.95;;;19.70;72.10;;;;;;5079206;28;20056;-88
2021/08/16 09:43:53;;;;;;;18.30;10.82;;;19.90;71.80;;;;;;5088654;28;20090;-89
2021/08/16 09:46:22;;;;;;;15.55;10.82;;;19.90;71.00;;;;;;5082086;28;20049;-89
2021/08/16 09:48:59;;;;;;;15.05;10.50;;;20.00;70.60;;;;;;5079742;28;20076;-88
2021/08/16 09:51:26;;;;;;;13.57;9.45;;;20.00;70.10;;;;;;5088738;28;20105;-90
2021/08/16 09:53:54;;;;;;;17.58;12.00;;;20.10;70.10;;;;;;5074728;28;20447;-89
2021/08/16 09:56:22;;;;;;;19.13;12.52;;;20.10;70.10;;;;;;5089743;28;20510;-88
2021/08/16 09:58:49;;;;;;;18.98;12.95;;;20.20;70.10;;;;;;5095196;28;20044;-89
2021/08/16 10:01:17;;;;;;;20.08;13.65;;;20.20;69.90;;;;;;5082452;28;20040;-88
2021/08/16 10:03:45;;;;;;;24.95;15.75;;;20.30;69.70;;;;;;5078484;28;20528;-87
2021/08/16 10:06:15;;;;;;;26.05;16.85;;;20.40;68.80;;;;;;5076976;28;20084;-88
2021/08/16 10:08:49;;;;;;;23.60;16.90;;;20.40;68.80;;;;;;5075167;28;20105;-86
2021/08/16 10:11:19;;;;;;;26.65;19.52;;;20.50;68.90;;;;;;5088689;28;20533;-88
2021/08/16 10:13:56;;;;;;;29.17;20.40;;;20.60;68.30;;;;;;5073138;28;20048;-91
2021/08/16 10:16:31;;;;;;;26.92;21.40;;;20.70;68.00;;;;;;5077910;28;20063;-90
2021/08/16 10:19:08;;;;;;;32.50;21.65;;;20.80;67.90;;;;;;5078327;28;20052;-88
2021/08/16 10:21:37;;;;;;;27.45;21.00;;;21.00;68.00;;;;;;5078406;28;20468;-89
2021/08/16 10:24:25;;;;;;;28.23;21.10;;;21.10;67.00;;;;;;5075607;28;20400;-88
2021/08/16 10:26:57;;;;;;;27.65;19.42;;;21.20;66.40;;;;;;5075184;28;20430;-87
2021/08/16 10:29:25;;;;;;;26.20;20.42;;;21.30;66.00;;;;;;5089252;28;20048;-91
2021/08/16 10:31:53;;;;;;;33.08;22.65;;;21.20;65.40;;;;;;5073468;28;20048;-88
2021/08/16 10:34:26;;;;;;;28.85;22.25;;;21.20;65.20;;;;;;5071769;28;20049;-90
2021/08/16 10:37:01;;;;;;;29.88;21.58;;;21.20;64.30;;;;;;5077910;28;20102;-87
2021/08/16 10:39:45;;;;;;;31.15;23.63;;;21.20;63.80;;;;;;5077700;28;20461;-88
2021/08/16 10:42:13;;;;;;;;;;;21.20;64.20;;;;;;5076740;28;20116;-90
2021/08/16 10:44:51;;;;;;;36.47;25.25;;;21.30;64.60;;;;;;5074378;28;20001;-89
2021/08/16 10:47:31;;;;;;;31.52;24.60;;;21.40;64.90;;;;;;5089778;28;20105;-88
2021/08/16 10:50:18;;;;;;;35.50;23.58;;;21.40;63.40;;;;;;5088697;28;20049;-90
2021/08/16 10:52:48;;;;;;;31.40;25.10;;;21.40;63.00;;;;;;5072283;28;20048;-88
2021/08/16 10:55:17;;;;;;;33.80;24.80;;;21.40;61.40;;;;;;5082541;28;20432;-89
2021/08/16 10:57:45;;;;;;;36.20;24.30;;;21.30;61.90;;;;;;5093459;28;20058;-88
2021/08/16 11:00:14;;;;;;;34.97;23.42;;;21.30;62.30;;;;;;5087740;28;20101;-89
2021/08/16 11:02:42;;;;;;;30.98;23.85;;;21.30;62.60;;;;;;5089419;28;20074;-90
2021/08/16 11:05:14;;;;;;;32.22;24.55;;;21.20;63.10;;;;;;5088193;28;20458;-89
2021/08/16 11:07:42;;;;;;;35.10;24.40;;;21.10;63.40;;;;;;5085858;28;20563;-91
2021/08/16 11:10:11;;;;;;;36.33;24.02;;;21.10;63.40;;;;;;5082295;28;20090;-89
2021/08/16 11:12:43;;;;;;;32.90;24.75;;;21.10;63.20;;;;;;5077058;28;20087;-90
2021/08/16 11:15:14;;;;;;;32.30;24.98;;;21.00;63.10;;;;;;5074932;28;20063;-89
2021/08/16 11:17:41;;;;;;;39.90;25.95;;;21.00;63.20;;;;;;5089209;28;20056;-90
2021/08/16 11:20:16;;;;;;;33.50;24.42;;;20.90;63.20;;;;;;5076737;28;20067;-89
2021/08/16 11:22:53;;;;;;;29.05;24.00;;;20.90;63.10;;;;;;5078386;28;20418;-88
2021/08/16 11:25:20;;;;;;;32.90;23.90;;;20.90;63.30;;;;;;5085422;28;20051;-88
2021/08/16 11:27:47;;;;;;;37.45;26.65;;;20.90;62.60;;;;;;5085177;28;20533;-88
2021/08/16 11:30:15;;;;;;;35.35;25.15;;;20.90;62.60;;;;;;5076125;28;20039;-87
2021/08/16 11:32:43;;;;;;;35.78;25.15;;;21.10;63.20;;;;;;5073385;28;20048;-88
2021/08/16 11:35:11;;;;;;;34.22;23.75;;;21.20;63.50;;;;;;5072339;28;20052;-89
2021/08/16 11:37:41;;;;;;;30.13;23.50;;;21.40;62.70;;;;;;5076632;28;20059;-89
2021/08/16 11:40:08;;;;;;;32.72;23.00;;;21.40;62.20;;;;;;5076690;28;20055;-89
2021/08/16 11:42:45;;;;;;;32.80;23.25;;;21.40;62.00;;;;;;5076079;28;20438;-91
2021/08/16 11:45:15;;;;;;;30.20;23.42;;;21.40;61.90;;;;;;5073956;28;20052;-89
2021/08/16 11:47:49;;;;;;;30.48;22.83;;;21.40;62.00;;;;;;5089283;28;20048;-89
2021/08/16 11:50:21;;;;;;;31.65;23.75;;;21.40;61.80;;;;;;5071953;28;20506;-87
2021/08/16 11:52:50;;;;;;;32.38;23.25;;;21.40;61.60;;;;;;5076875;28;20048;-88
2021/08/16 11:55:24;;;;;;;31.65;22.52;;;21.50;61.70;;;;;;5081388;28;20097;-89
2021/08/16 11:57:53;;;;;;;32.88;23.92;;;21.50;61.70;;;;;;5093672;28;20047;-89
2021/08/16 12:00:31;;;;;;;35.03;23.60;;;21.60;61.40;;;;;;5085482;28;20052;-92
2021/08/16 12:02:59;;;;;;;29.80;22.63;;;21.60;61.20;;;;;;5086271;28;20044;-89
2021/08/16 12:05:28;;;;;;;31.17;23.35;;;21.60;61.20;;;;;;5074645;28;20207;-89
2021/08/16 12:07:55;;;;;;;32.72;23.02;;;21.60;60.70;;;;;;5085783;28;20052;-91
2021/08/16 12:10:27;;;;;;;34.35;24.50;;;21.50;60.80;;;;;;5079168;28;20066;-90
2021/08/16 12:13:03;;;;;;;33.17;24.13;;;21.50;61.00;;;;;;5076264;28;20056;-89
2021/08/16 12:15:42;;;;;;;31.15;23.67;;;21.40;61.30;;;;;;5075912;28;20074;-90
2021/08/16 12:18:10;;;;;;;33.58;24.23;;;21.30;61.40;;;;;;5075626;28;20044;-91
2021/08/16 12:20:41;;;;;;;34.78;24.10;;;21.20;61.50;;;;;;5072997;28;20048;-90
2021/08/16 12:23:08;;;;;;;32.15;24.48;;;21.10;61.60;;;;;;5076484;28;20056;-89
2021/08/16 12:25:46;;;;;;;32.13;22.83;;;21.00;61.70;;;;;;5075974;28;20808;-87
2021/08/16 12:28:13;;;;;;;39.47;25.50;;;21.10;61.80;;;;;;5080177;28;20044;-89
2021/08/16 12:30:41;;;;;;;34.83;24.98;;;21.00;61.60;;;;;;5085100;28;20048;-88
2021/08/16 12:33:09;;;;;;;33.80;24.30;;;21.00;61.70;;;;;;5074073;28;20051;-89
2021/08/16 12:35:36;;;;;;;35.50;25.20;;;20.90;61.70;;;;;;5073039;28;20490;-88
2021/08/16 12:38:04;;;;;;;36.95;24.83;;;20.90;61.50;;;;;;5075980;28;20125;-87
2021/08/16 12:40:32;;;;;;;33.75;24.35;;;20.90;61.40;;;;;;5075738;28;20114;-90
2021/08/16 12:43:02;;;;;;;34.00;23.85;;;20.80;61.50;;;;;;5078222;28;20048;-89
2021/08/16 12:45:30;;;;;;;39.47;25.92;;;20.80;61.60;;;;;;5084637;28;20098;-88